Startpagina
METAR-TAF:

METAR-TAF

Vliegvelden :

Luchthaven Oued Irara

Hassi Messaoud, Algerije

breedte: 31-40N, lengte: 006-09E, hoogte: 142 m

Actueel weer

Dit bericht is 14 minuten geleden gemaakt, om 18:00 UTC
Wind 9 kt uit het noorden
Temperatuur 19°C
Vochtigheid 28%
Druk 1020 hPa
Zicht 10 km of meer
geen wolken onder 1500 m en geen cumulonimbus

METAR: DAUH 261800Z 36009KT CAVOK 19/M00 Q1020

Tijdstip: 19:14 (18:14 UTC)

Verwachting

Dit bericht is 1 uur en het 14 minuten geleden gemaakt, om 17:00 UTC
Verwachting geldig van 26 om 18 UTC tot 27 om 18 UTC
Wind 8 kt uit het noordnoordwesten
Zicht 10 km of meer
geen wolken onder 1500 m en geen cumulonimbus

TAF: DAUH 261700Z 2618/2718 34008KT CAVOK

Waarnemingen en weersverwachtingen van meer dan 4000 vliegvelden (METAR en TAF).

De beschikbare stations zijn de gele en rode punten op de kaart.

Ga met uw muis naar het station om de naam te zien.

Klik dan om waarnemingen en weersverwachtingen te zien.

kaart wijzigen: klik op de groene knoppen met een zwart kruis om in te zoomen, op de groene knop met een streepje om uit te zoomen of op de groene pijlen voor aangrenzende kaarten.


METAR-TAF: